sensor_id;sensor_type;location;lat;lon;timestamp;P1;durP1;ratioP1;P2;durP2;ratioP2
15929;SDS011;8064;51.142;4.780;2024-01-30T00:00:24;10.60;;;5.60;;
15929;SDS011;8064;51.142;4.780;2024-01-30T00:02:49;6.53;;;5.57;;
15929;SDS011;8064;51.142;4.780;2024-01-30T00:05:15;6.77;;;5.80;;
15929;SDS011;8064;51.142;4.780;2024-01-30T00:07:42;6.17;;;5.47;;
15929;SDS011;8064;51.142;4.780;2024-01-30T00:10:08;6.57;;;5.23;;
15929;SDS011;8064;51.142;4.780;2024-01-30T00:12:34;5.60;;;5.00;;
15929;SDS011;8064;51.142;4.780;2024-01-30T00:15:00;7.93;;;5.47;;
15929;SDS011;8064;51.142;4.780;2024-01-30T00:17:25;5.67;;;5.03;;
15929;SDS011;8064;51.142;4.780;2024-01-30T00:19:51;12.40;;;5.17;;
15929;SDS011;8064;51.142;4.780;2024-01-30T00:22:17;8.80;;;5.30;;
15929;SDS011;8064;51.142;4.780;2024-01-30T00:24:43;7.90;;;5.30;;
15929;SDS011;8064;51.142;4.780;2024-01-30T00:27:08;8.23;;;5.60;;
15929;SDS011;8064;51.142;4.780;2024-01-30T00:29:34;6.80;;;5.20;;
15929;SDS011;8064;51.142;4.780;2024-01-30T00:32:00;6.97;;;5.60;;
15929;SDS011;8064;51.142;4.780;2024-01-30T00:34:25;6.80;;;4.90;;
15929;SDS011;8064;51.142;4.780;2024-01-30T00:36:51;7.97;;;5.70;;
15929;SDS011;8064;51.142;4.780;2024-01-30T00:39:17;9.33;;;4.87;;
15929;SDS011;8064;51.142;4.780;2024-01-30T00:41:44;7.17;;;4.87;;
15929;SDS011;8064;51.142;4.780;2024-01-30T00:44:10;6.60;;;5.87;;
15929;SDS011;8064;51.142;4.780;2024-01-30T00:46:36;5.80;;;4.83;;
15929;SDS011;8064;51.142;4.780;2024-01-30T00:49:02;7.20;;;4.90;;
15929;SDS011;8064;51.142;4.780;2024-01-30T00:51:27;6.73;;;4.90;;
15929;SDS011;8064;51.142;4.780;2024-01-30T00:53:54;5.30;;;4.53;;
15929;SDS011;8064;51.142;4.780;2024-01-30T00:56:20;6.83;;;4.90;;
15929;SDS011;8064;51.142;4.780;2024-01-30T00:58:46;6.13;;;4.97;;
15929;SDS011;8064;51.142;4.780;2024-01-30T01:01:12;6.87;;;4.80;;
15929;SDS011;8064;51.142;4.780;2024-01-30T01:03:38;5.73;;;4.67;;
15929;SDS011;8064;51.142;4.780;2024-01-30T01:06:05;6.60;;;4.80;;
15929;SDS011;8064;51.142;4.780;2024-01-30T01:08:31;6.70;;;4.57;;
15929;SDS011;8064;51.142;4.780;2024-01-30T01:10:57;6.33;;;4.80;;
15929;SDS011;8064;51.142;4.780;2024-01-30T01:13:23;7.27;;;4.27;;
15929;SDS011;8064;51.142;4.780;2024-01-30T01:15:48;5.13;;;3.87;;
15929;SDS011;8064;51.142;4.780;2024-01-30T01:18:14;5.70;;;4.37;;
15929;SDS011;8064;51.142;4.780;2024-01-30T01:20:40;5.83;;;4.57;;
15929;SDS011;8064;51.142;4.780;2024-01-30T01:23:06;5.30;;;3.97;;
15929;SDS011;8064;51.142;4.780;2024-01-30T01:25:32;6.03;;;4.57;;
15929;SDS011;8064;51.142;4.780;2024-01-30T01:27:58;5.00;;;4.27;;
15929;SDS011;8064;51.142;4.780;2024-01-30T01:30:26;5.47;;;4.20;;
15929;SDS011;8064;51.142;4.780;2024-01-30T01:32:53;5.43;;;4.27;;
15929;SDS011;8064;51.142;4.780;2024-01-30T01:35:21;5.47;;;4.27;;
15929;SDS011;8064;51.142;4.780;2024-01-30T01:37:49;4.80;;;4.30;;
15929;SDS011;8064;51.142;4.780;2024-01-30T01:40:20;6.70;;;4.40;;
15929;SDS011;8064;51.142;4.780;2024-01-30T01:42:53;6.47;;;4.47;;
15929;SDS011;8064;51.142;4.780;2024-01-30T01:45:20;5.63;;;4.00;;
15929;SDS011;8064;51.142;4.780;2024-01-30T01:47:49;5.27;;;3.83;;
15929;SDS011;8064;51.142;4.780;2024-01-30T01:50:16;6.53;;;4.27;;
15929;SDS011;8064;51.142;4.780;2024-01-30T01:52:46;5.10;;;4.30;;
15929;SDS011;8064;51.142;4.780;2024-01-30T01:55:13;5.87;;;3.87;;
15929;SDS011;8064;51.142;4.780;2024-01-30T01:57:40;6.10;;;4.20;;
15929;SDS011;8064;51.142;4.780;2024-01-30T02:00:08;6.30;;;4.03;;
15929;SDS011;8064;51.142;4.780;2024-01-30T02:02:35;5.97;;;4.10;;
15929;SDS011;8064;51.142;4.780;2024-01-30T02:05:02;8.07;;;4.57;;
15929;SDS011;8064;51.142;4.780;2024-01-30T02:07:28;4.33;;;3.93;;
15929;SDS011;8064;51.142;4.780;2024-01-30T02:09:54;5.87;;;4.27;;
15929;SDS011;8064;51.142;4.780;2024-01-30T02:12:20;6.73;;;4.23;;
15929;SDS011;8064;51.142;4.780;2024-01-30T02:14:46;4.53;;;4.07;;
15929;SDS011;8064;51.142;4.780;2024-01-30T02:17:13;7.03;;;4.10;;
15929;SDS011;8064;51.142;4.780;2024-01-30T02:19:39;6.63;;;3.97;;
15929;SDS011;8064;51.142;4.780;2024-01-30T02:22:05;5.27;;;4.10;;
15929;SDS011;8064;51.142;4.780;2024-01-30T02:24:32;8.10;;;4.30;;
15929;SDS011;8064;51.142;4.780;2024-01-30T02:26:57;5.63;;;4.20;;
15929;SDS011;8064;51.142;4.780;2024-01-30T02:29:23;5.23;;;3.63;;
15929;SDS011;8064;51.142;4.780;2024-01-30T02:31:49;4.10;;;3.70;;
15929;SDS011;8064;51.142;4.780;2024-01-30T02:34:15;6.20;;;3.70;;
15929;SDS011;8064;51.142;4.780;2024-01-30T02:36:42;7.57;;;3.97;;
15929;SDS011;8064;51.142;4.780;2024-01-30T02:39:08;5.20;;;4.00;;
15929;SDS011;8064;51.142;4.780;2024-01-30T02:41:34;6.60;;;3.93;;
15929;SDS011;8064;51.142;4.780;2024-01-30T02:44:01;5.30;;;4.10;;
15929;SDS011;8064;51.142;4.780;2024-01-30T02:46:27;4.63;;;3.70;;
15929;SDS011;8064;51.142;4.780;2024-01-30T02:48:53;4.57;;;4.17;;
15929;SDS011;8064;51.142;4.780;2024-01-30T02:51:19;6.90;;;4.70;;
15929;SDS011;8064;51.142;4.780;2024-01-30T02:53:44;5.60;;;3.77;;
15929;SDS011;8064;51.142;4.780;2024-01-30T02:56:10;4.77;;;4.27;;
15929;SDS011;8064;51.142;4.780;2024-01-30T02:58:37;5.10;;;3.87;;
15929;SDS011;8064;51.142;4.780;2024-01-30T03:01:02;4.63;;;3.50;;
15929;SDS011;8064;51.142;4.780;2024-01-30T03:03:28;4.53;;;3.50;;
15929;SDS011;8064;51.142;4.780;2024-01-30T03:05:54;4.67;;;3.77;;
15929;SDS011;8064;51.142;4.780;2024-01-30T03:08:20;5.87;;;3.47;;
15929;SDS011;8064;51.142;4.780;2024-01-30T03:10:46;4.17;;;3.13;;
15929;SDS011;8064;51.142;4.780;2024-01-30T03:13:12;6.37;;;3.40;;
15929;SDS011;8064;51.142;4.780;2024-01-30T03:15:37;6.57;;;3.70;;
15929;SDS011;8064;51.142;4.780;2024-01-30T03:18:03;5.07;;;3.63;;
15929;SDS011;8064;51.142;4.780;2024-01-30T03:20:29;4.40;;;3.40;;
15929;SDS011;8064;51.142;4.780;2024-01-30T03:22:55;5.47;;;3.50;;
15929;SDS011;8064;51.142;4.780;2024-01-30T03:25:21;4.17;;;3.50;;
15929;SDS011;8064;51.142;4.780;2024-01-30T03:27:47;4.20;;;3.40;;
15929;SDS011;8064;51.142;4.780;2024-01-30T03:30:13;4.27;;;3.70;;
15929;SDS011;8064;51.142;4.780;2024-01-30T03:32:38;5.03;;;3.77;;
15929;SDS011;8064;51.142;4.780;2024-01-30T03:35:04;5.77;;;3.57;;
15929;SDS011;8064;51.142;4.780;2024-01-30T03:37:30;5.20;;;3.30;;
15929;SDS011;8064;51.142;4.780;2024-01-30T03:39:56;5.33;;;3.63;;
15929;SDS011;8064;51.142;4.780;2024-01-30T03:42:22;7.73;;;3.83;;
15929;SDS011;8064;51.142;4.780;2024-01-30T03:44:48;4.30;;;3.30;;
15929;SDS011;8064;51.142;4.780;2024-01-30T03:47:17;5.53;;;3.40;;
15929;SDS011;8064;51.142;4.780;2024-01-30T03:49:42;5.57;;;3.27;;
15929;SDS011;8064;51.142;4.780;2024-01-30T03:52:08;5.47;;;3.30;;
15929;SDS011;8064;51.142;4.780;2024-01-30T03:54:34;5.40;;;3.37;;
15929;SDS011;8064;51.142;4.780;2024-01-30T03:57:00;4.13;;;2.83;;
15929;SDS011;8064;51.142;4.780;2024-01-30T03:59:26;4.20;;;3.17;;
15929;SDS011;8064;51.142;4.780;2024-01-30T04:01:51;3.50;;;3.00;;
15929;SDS011;8064;51.142;4.780;2024-01-30T04:04:18;4.90;;;3.17;;
15929;SDS011;8064;51.142;4.780;2024-01-30T04:06:44;5.63;;;3.27;;
15929;SDS011;8064;51.142;4.780;2024-01-30T04:09:10;3.53;;;3.17;;
15929;SDS011;8064;51.142;4.780;2024-01-30T04:11:38;6.07;;;3.63;;
15929;SDS011;8064;51.142;4.780;2024-01-30T04:14:04;5.37;;;3.50;;
15929;SDS011;8064;51.142;4.780;2024-01-30T04:16:30;5.13;;;3.00;;
15929;SDS011;8064;51.142;4.780;2024-01-30T04:18:56;6.77;;;3.33;;
15929;SDS011;8064;51.142;4.780;2024-01-30T04:21:21;6.10;;;3.50;;
15929;SDS011;8064;51.142;4.780;2024-01-30T04:23:47;4.97;;;3.57;;
15929;SDS011;8064;51.142;4.780;2024-01-30T04:26:14;4.87;;;3.50;;
15929;SDS011;8064;51.142;4.780;2024-01-30T04:28:45;5.80;;;3.40;;
15929;SDS011;8064;51.142;4.780;2024-01-30T04:31:11;7.10;;;3.33;;
15929;SDS011;8064;51.142;4.780;2024-01-30T04:33:37;7.17;;;3.60;;
15929;SDS011;8064;51.142;4.780;2024-01-30T04:36:03;4.27;;;3.37;;
15929;SDS011;8064;51.142;4.780;2024-01-30T04:38:30;5.07;;;3.40;;
15929;SDS011;8064;51.142;4.780;2024-01-30T04:40:56;4.23;;;3.37;;
15929;SDS011;8064;51.142;4.780;2024-01-30T04:43:22;5.30;;;3.10;;
15929;SDS011;8064;51.142;4.780;2024-01-30T04:45:48;4.93;;;3.80;;
15929;SDS011;8064;51.142;4.780;2024-01-30T04:48:14;4.90;;;3.20;;
15929;SDS011;8064;51.142;4.780;2024-01-30T04:50:40;5.37;;;3.60;;
15929;SDS011;8064;51.142;4.780;2024-01-30T04:53:06;4.73;;;3.53;;
15929;SDS011;8064;51.142;4.780;2024-01-30T04:55:32;4.50;;;2.90;;
15929;SDS011;8064;51.142;4.780;2024-01-30T04:58:00;6.23;;;3.70;;
15929;SDS011;8064;51.142;4.780;2024-01-30T05:00:26;4.93;;;3.27;;
15929;SDS011;8064;51.142;4.780;2024-01-30T05:02:52;4.90;;;3.30;;
15929;SDS011;8064;51.142;4.780;2024-01-30T05:05:19;5.77;;;3.33;;
15929;SDS011;8064;51.142;4.780;2024-01-30T05:07:46;4.00;;;3.17;;
15929;SDS011;8064;51.142;4.780;2024-01-30T05:10:12;8.30;;;3.60;;
15929;SDS011;8064;51.142;4.780;2024-01-30T05:12:38;5.63;;;3.43;;
15929;SDS011;8064;51.142;4.780;2024-01-30T05:15:05;5.47;;;3.37;;
15929;SDS011;8064;51.142;4.780;2024-01-30T05:17:31;7.57;;;3.73;;
15929;SDS011;8064;51.142;4.780;2024-01-30T05:19:57;5.27;;;3.37;;
15929;SDS011;8064;51.142;4.780;2024-01-30T05:22:23;5.33;;;3.77;;
15929;SDS011;8064;51.142;4.780;2024-01-30T05:24:49;5.77;;;3.80;;
15929;SDS011;8064;51.142;4.780;2024-01-30T05:27:14;5.03;;;3.30;;
15929;SDS011;8064;51.142;4.780;2024-01-30T05:29:40;6.57;;;3.33;;
15929;SDS011;8064;51.142;4.780;2024-01-30T05:32:06;4.77;;;3.30;;
15929;SDS011;8064;51.142;4.780;2024-01-30T05:34:32;4.93;;;3.53;;
15929;SDS011;8064;51.142;4.780;2024-01-30T05:36:58;5.03;;;3.53;;
15929;SDS011;8064;51.142;4.780;2024-01-30T05:39:24;5.97;;;3.33;;
15929;SDS011;8064;51.142;4.780;2024-01-30T05:41:50;4.80;;;3.30;;
15929;SDS011;8064;51.142;4.780;2024-01-30T05:44:15;4.37;;;3.40;;
15929;SDS011;8064;51.142;4.780;2024-01-30T05:46:41;5.00;;;3.30;;
15929;SDS011;8064;51.142;4.780;2024-01-30T05:49:07;5.37;;;3.40;;
15929;SDS011;8064;51.142;4.780;2024-01-30T05:51:33;4.23;;;3.37;;
15929;SDS011;8064;51.142;4.780;2024-01-30T05:53:58;4.80;;;3.30;;
15929;SDS011;8064;51.142;4.780;2024-01-30T05:56:24;5.10;;;3.30;;
15929;SDS011;8064;51.142;4.780;2024-01-30T05:58:50;5.77;;;3.80;;
15929;SDS011;8064;51.142;4.780;2024-01-30T06:01:16;5.13;;;3.43;;
15929;SDS011;8064;51.142;4.780;2024-01-30T06:03:41;3.97;;;3.23;;
15929;SDS011;8064;51.142;4.780;2024-01-30T06:06:08;6.80;;;3.57;;
15929;SDS011;8064;51.142;4.780;2024-01-30T06:08:34;6.33;;;3.40;;
15929;SDS011;8064;51.142;4.780;2024-01-30T06:11:00;5.47;;;3.70;;
15929;SDS011;8064;51.142;4.780;2024-01-30T06:13:26;6.13;;;3.53;;
15929;SDS011;8064;51.142;4.780;2024-01-30T06:15:52;4.43;;;3.30;;
15929;SDS011;8064;51.142;4.780;2024-01-30T06:18:18;5.67;;;3.30;;
15929;SDS011;8064;51.142;4.780;2024-01-30T06:20:44;4.67;;;3.80;;
15929;SDS011;8064;51.142;4.780;2024-01-30T06:23:09;5.13;;;3.73;;
15929;SDS011;8064;51.142;4.780;2024-01-30T06:25:35;4.70;;;3.50;;
15929;SDS011;8064;51.142;4.780;2024-01-30T06:28:01;4.73;;;3.57;;
15929;SDS011;8064;51.142;4.780;2024-01-30T06:30:27;6.03;;;4.13;;
15929;SDS011;8064;51.142;4.780;2024-01-30T06:32:52;4.70;;;3.30;;
15929;SDS011;8064;51.142;4.780;2024-01-30T06:35:18;5.67;;;3.30;;
15929;SDS011;8064;51.142;4.780;2024-01-30T06:37:46;5.00;;;3.50;;
15929;SDS011;8064;51.142;4.780;2024-01-30T06:40:12;5.37;;;3.73;;
15929;SDS011;8064;51.142;4.780;2024-01-30T06:42:39;6.20;;;3.57;;
15929;SDS011;8064;51.142;4.780;2024-01-30T06:45:06;5.23;;;3.80;;
15929;SDS011;8064;51.142;4.780;2024-01-30T06:47:33;6.03;;;3.63;;
15929;SDS011;8064;51.142;4.780;2024-01-30T06:49:58;48.57;;;26.57;;
15929;SDS011;8064;51.142;4.780;2024-01-30T06:52:24;32.77;;;20.20;;
15929;SDS011;8064;51.142;4.780;2024-01-30T06:54:50;13.63;;;9.07;;
15929;SDS011;8064;51.142;4.780;2024-01-30T06:57:16;13.60;;;10.17;;
15929;SDS011;8064;51.142;4.780;2024-01-30T06:59:42;4.70;;;3.90;;
15929;SDS011;8064;51.142;4.780;2024-01-30T07:02:09;4.30;;;3.20;;
15929;SDS011;8064;51.142;4.780;2024-01-30T07:04:36;5.70;;;3.50;;
15929;SDS011;8064;51.142;4.780;2024-01-30T07:07:03;6.97;;;3.77;;
15929;SDS011;8064;51.142;4.780;2024-01-30T07:09:30;4.87;;;3.50;;
15929;SDS011;8064;51.142;4.780;2024-01-30T07:11:56;4.97;;;3.67;;
15929;SDS011;8064;51.142;4.780;2024-01-30T07:14:23;4.93;;;3.63;;
15929;SDS011;8064;51.142;4.780;2024-01-30T07:16:50;4.57;;;3.60;;
15929;SDS011;8064;51.142;4.780;2024-01-30T07:19:15;7.50;;;3.70;;
15929;SDS011;8064;51.142;4.780;2024-01-30T07:21:41;5.27;;;3.23;;
15929;SDS011;8064;51.142;4.780;2024-01-30T07:24:07;5.20;;;3.63;;
15929;SDS011;8064;51.142;4.780;2024-01-30T07:26:33;5.77;;;3.70;;
15929;SDS011;8064;51.142;4.780;2024-01-30T07:29:00;6.57;;;3.37;;
15929;SDS011;8064;51.142;4.780;2024-01-30T07:31:26;4.77;;;3.43;;
15929;SDS011;8064;51.142;4.780;2024-01-30T07:33:52;4.53;;;3.30;;
15929;SDS011;8064;51.142;4.780;2024-01-30T07:36:19;3.77;;;3.20;;
15929;SDS011;8064;51.142;4.780;2024-01-30T07:38:45;5.10;;;3.40;;
15929;SDS011;8064;51.142;4.780;2024-01-30T07:41:11;6.20;;;3.50;;
15929;SDS011;8064;51.142;4.780;2024-01-30T07:43:38;4.30;;;3.20;;
15929;SDS011;8064;51.142;4.780;2024-01-30T07:46:04;5.87;;;3.93;;
15929;SDS011;8064;51.142;4.780;2024-01-30T07:48:31;8.83;;;5.63;;
15929;SDS011;8064;51.142;4.780;2024-01-30T07:50:59;13.27;;;8.37;;
15929;SDS011;8064;51.142;4.780;2024-01-30T07:53:25;16.17;;;7.27;;
15929;SDS011;8064;51.142;4.780;2024-01-30T07:55:52;9.67;;;5.90;;
15929;SDS011;8064;51.142;4.780;2024-01-30T07:58:17;12.93;;;8.47;;
15929;SDS011;8064;51.142;4.780;2024-01-30T08:00:44;12.03;;;7.10;;
15929;SDS011;8064;51.142;4.780;2024-01-30T08:03:10;16.77;;;9.87;;
15929;SDS011;8064;51.142;4.780;2024-01-30T08:05:36;16.63;;;8.27;;
15929;SDS011;8064;51.142;4.780;2024-01-30T08:08:01;14.03;;;7.70;;
15929;SDS011;8064;51.142;4.780;2024-01-30T08:10:27;13.03;;;6.87;;
15929;SDS011;8064;51.142;4.780;2024-01-30T08:12:53;7.03;;;4.83;;
15929;SDS011;8064;51.142;4.780;2024-01-30T08:15:19;7.17;;;5.43;;
15929;SDS011;8064;51.142;4.780;2024-01-30T08:17:44;12.27;;;8.27;;
15929;SDS011;8064;51.142;4.780;2024-01-30T08:20:10;10.70;;;7.10;;
15929;SDS011;8064;51.142;4.780;2024-01-30T08:22:38;12.60;;;6.07;;
15929;SDS011;8064;51.142;4.780;2024-01-30T08:25:05;6.87;;;4.10;;
15929;SDS011;8064;51.142;4.780;2024-01-30T08:27:32;5.87;;;4.13;;
15929;SDS011;8064;51.142;4.780;2024-01-30T08:29:57;7.90;;;4.33;;
15929;SDS011;8064;51.142;4.780;2024-01-30T08:32:24;8.10;;;4.63;;
15929;SDS011;8064;51.142;4.780;2024-01-30T08:34:51;10.20;;;4.13;;
15929;SDS011;8064;51.142;4.780;2024-01-30T08:37:17;6.37;;;3.90;;
15929;SDS011;8064;51.142;4.780;2024-01-30T08:39:44;5.23;;;4.17;;
15929;SDS011;8064;51.142;4.780;2024-01-30T08:42:11;5.47;;;3.60;;
15929;SDS011;8064;51.142;4.780;2024-01-30T08:44:38;7.37;;;4.37;;
15929;SDS011;8064;51.142;4.780;2024-01-30T08:47:04;6.17;;;3.90;;
15929;SDS011;8064;51.142;4.780;2024-01-30T08:49:30;5.27;;;3.57;;
15929;SDS011;8064;51.142;4.780;2024-01-30T08:51:56;8.57;;;3.97;;
15929;SDS011;8064;51.142;4.780;2024-01-30T08:54:24;8.23;;;3.60;;
15929;SDS011;8064;51.142;4.780;2024-01-30T08:56:49;6.97;;;4.00;;
15929;SDS011;8064;51.142;4.780;2024-01-30T08:59:17;5.37;;;3.67;;
15929;SDS011;8064;51.142;4.780;2024-01-30T09:01:43;7.60;;;4.60;;
15929;SDS011;8064;51.142;4.780;2024-01-30T09:04:08;6.63;;;4.27;;
15929;SDS011;8064;51.142;4.780;2024-01-30T09:06:34;11.27;;;4.57;;
15929;SDS011;8064;51.142;4.780;2024-01-30T09:09:00;6.53;;;4.20;;
15929;SDS011;8064;51.142;4.780;2024-01-30T09:11:26;5.33;;;3.70;;
15929;SDS011;8064;51.142;4.780;2024-01-30T09:13:52;7.67;;;4.30;;
15929;SDS011;8064;51.142;4.780;2024-01-30T09:16:17;6.97;;;3.57;;
15929;SDS011;8064;51.142;4.780;2024-01-30T09:18:43;6.87;;;3.90;;
15929;SDS011;8064;51.142;4.780;2024-01-30T09:21:09;5.07;;;3.53;;
15929;SDS011;8064;51.142;4.780;2024-01-30T09:23:35;7.83;;;4.33;;
15929;SDS011;8064;51.142;4.780;2024-01-30T09:26:01;7.87;;;4.60;;
15929;SDS011;8064;51.142;4.780;2024-01-30T09:28:26;7.40;;;4.20;;
15929;SDS011;8064;51.142;4.780;2024-01-30T09:30:52;7.20;;;3.87;;
15929;SDS011;8064;51.142;4.780;2024-01-30T09:33:18;8.80;;;4.07;;
15929;SDS011;8064;51.142;4.780;2024-01-30T09:35:45;9.87;;;4.60;;
15929;SDS011;8064;51.142;4.780;2024-01-30T09:38:10;6.43;;;4.43;;
15929;SDS011;8064;51.142;4.780;2024-01-30T09:40:36;6.83;;;4.23;;
15929;SDS011;8064;51.142;4.780;2024-01-30T09:43:02;7.00;;;4.50;;
15929;SDS011;8064;51.142;4.780;2024-01-30T09:45:28;9.80;;;4.60;;
15929;SDS011;8064;51.142;4.780;2024-01-30T09:47:58;8.47;;;4.77;;
15929;SDS011;8064;51.142;4.780;2024-01-30T09:50:24;8.43;;;5.30;;
15929;SDS011;8064;51.142;4.780;2024-01-30T09:52:52;10.03;;;4.93;;
15929;SDS011;8064;51.142;4.780;2024-01-30T09:58:08;8.90;;;5.30;;
15929;SDS011;8064;51.142;4.780;2024-01-30T10:00:33;8.87;;;5.00;;
15929;SDS011;8064;51.142;4.780;2024-01-30T10:02:59;7.37;;;4.83;;
15929;SDS011;8064;51.142;4.780;2024-01-30T10:05:28;10.97;;;5.40;;
15929;SDS011;8064;51.142;4.780;2024-01-30T10:07:59;9.10;;;5.30;;
15929;SDS011;8064;51.142;4.780;2024-01-30T10:10:25;10.83;;;5.43;;
15929;SDS011;8064;51.142;4.780;2024-01-30T10:12:51;8.07;;;5.00;;
15929;SDS011;8064;51.142;4.780;2024-01-30T10:15:17;9.60;;;5.50;;
15929;SDS011;8064;51.142;4.780;2024-01-30T10:17:44;8.67;;;5.27;;
15929;SDS011;8064;51.142;4.780;2024-01-30T10:20:11;7.63;;;5.50;;
15929;SDS011;8064;51.142;4.780;2024-01-30T10:22:37;8.30;;;5.57;;
15929;SDS011;8064;51.142;4.780;2024-01-30T10:25:04;10.17;;;5.70;;
15929;SDS011;8064;51.142;4.780;2024-01-30T10:27:31;7.93;;;5.97;;
15929;SDS011;8064;51.142;4.780;2024-01-30T10:29:57;9.70;;;5.33;;
15929;SDS011;8064;51.142;4.780;2024-01-30T10:32:23;11.27;;;5.50;;
15929;SDS011;8064;51.142;4.780;2024-01-30T10:34:49;9.43;;;5.50;;
15929;SDS011;8064;51.142;4.780;2024-01-30T10:37:15;8.40;;;5.80;;
15929;SDS011;8064;51.142;4.780;2024-01-30T10:39:43;13.83;;;9.20;;
15929;SDS011;8064;51.142;4.780;2024-01-30T10:42:12;7.53;;;5.37;;
15929;SDS011;8064;51.142;4.780;2024-01-30T10:44:43;7.07;;;5.23;;
15929;SDS011;8064;51.142;4.780;2024-01-30T10:47:11;11.67;;;5.87;;
15929;SDS011;8064;51.142;4.780;2024-01-30T10:49:39;8.67;;;5.10;;
15929;SDS011;8064;51.142;4.780;2024-01-30T10:52:07;7.07;;;4.80;;
15929;SDS011;8064;51.142;4.780;2024-01-30T10:54:34;9.80;;;5.20;;
15929;SDS011;8064;51.142;4.780;2024-01-30T10:57:01;8.10;;;5.03;;
15929;SDS011;8064;51.142;4.780;2024-01-30T10:59:29;8.73;;;4.77;;
15929;SDS011;8064;51.142;4.780;2024-01-30T11:01:57;9.33;;;3.60;;
15929;SDS011;8064;51.142;4.780;2024-01-30T11:04:24;8.40;;;3.73;;
15929;SDS011;8064;51.142;4.780;2024-01-30T11:06:50;12.97;;;4.57;;
15929;SDS011;8064;51.142;4.780;2024-01-30T11:09:17;4.63;;;3.50;;
15929;SDS011;8064;51.142;4.780;2024-01-30T11:11:55;5.57;;;3.43;;
15929;SDS011;8064;51.142;4.780;2024-01-30T11:14:29;4.50;;;2.90;;
15929;SDS011;8064;51.142;4.780;2024-01-30T11:16:57;7.10;;;2.87;;
15929;SDS011;8064;51.142;4.780;2024-01-30T11:19:24;5.80;;;3.10;;
15929;SDS011;8064;51.142;4.780;2024-01-30T11:21:51;7.57;;;3.23;;
15929;SDS011;8064;51.142;4.780;2024-01-30T11:24:20;3.93;;;2.20;;
15929;SDS011;8064;51.142;4.780;2024-01-30T11:26:48;10.30;;;2.70;;
15929;SDS011;8064;51.142;4.780;2024-01-30T11:29:16;6.63;;;2.67;;
15929;SDS011;8064;51.142;4.780;2024-01-30T11:31:53;8.00;;;2.30;;
15929;SDS011;8064;51.142;4.780;2024-01-30T11:34:20;3.57;;;2.10;;
15929;SDS011;8064;51.142;4.780;2024-01-30T11:36:48;5.73;;;1.90;;
15929;SDS011;8064;51.142;4.780;2024-01-30T11:39:20;3.87;;;2.27;;
15929;SDS011;8064;51.142;4.780;2024-01-30T11:41:47;4.97;;;1.63;;
15929;SDS011;8064;51.142;4.780;2024-01-30T11:44:16;3.63;;;1.20;;
15929;SDS011;8064;51.142;4.780;2024-01-30T11:46:41;2.00;;;1.20;;
15929;SDS011;8064;51.142;4.780;2024-01-30T11:49:07;3.27;;;1.40;;
15929;SDS011;8064;51.142;4.780;2024-01-30T11:51:33;3.20;;;1.07;;
15929;SDS011;8064;51.142;4.780;2024-01-30T11:53:59;2.47;;;1.10;;
15929;SDS011;8064;51.142;4.780;2024-01-30T11:56:26;2.87;;;1.30;;
15929;SDS011;8064;51.142;4.780;2024-01-30T11:58:52;1.83;;;0.83;;
15929;SDS011;8064;51.142;4.780;2024-01-30T12:01:18;3.63;;;1.00;;
15929;SDS011;8064;51.142;4.780;2024-01-30T12:03:50;2.37;;;0.80;;
15929;SDS011;8064;51.142;4.780;2024-01-30T12:06:16;2.13;;;1.10;;
15929;SDS011;8064;51.142;4.780;2024-01-30T12:08:42;2.83;;;0.80;;
15929;SDS011;8064;51.142;4.780;2024-01-30T12:11:08;3.23;;;1.40;;
15929;SDS011;8064;51.142;4.780;2024-01-30T12:13:33;3.27;;;1.30;;
15929;SDS011;8064;51.142;4.780;2024-01-30T12:16:00;2.13;;;1.50;;
15929;SDS011;8064;51.142;4.780;2024-01-30T12:18:26;2.43;;;1.10;;
15929;SDS011;8064;51.142;4.780;2024-01-30T12:20:58;1.73;;;0.70;;
15929;SDS011;8064;51.142;4.780;2024-01-30T12:23:25;3.07;;;0.60;;
15929;SDS011;8064;51.142;4.780;2024-01-30T12:25:52;3.67;;;0.80;;
15929;SDS011;8064;51.142;4.780;2024-01-30T12:28:18;1.63;;;0.63;;
15929;SDS011;8064;51.142;4.780;2024-01-30T12:30:44;3.67;;;0.90;;
15929;SDS011;8064;51.142;4.780;2024-01-30T12:33:15;3.87;;;1.27;;
15929;SDS011;8064;51.142;4.780;2024-01-30T12:35:46;2.77;;;0.90;;
15929;SDS011;8064;51.142;4.780;2024-01-30T12:38:14;2.33;;;0.70;;
15929;SDS011;8064;51.142;4.780;2024-01-30T12:40:40;3.77;;;0.70;;
15929;SDS011;8064;51.142;4.780;2024-01-30T12:43:06;2.13;;;0.57;;
15929;SDS011;8064;51.142;4.780;2024-01-30T12:45:31;2.73;;;0.80;;
15929;SDS011;8064;51.142;4.780;2024-01-30T12:47:57;5.23;;;0.87;;
15929;SDS011;8064;51.142;4.780;2024-01-30T12:50:23;2.73;;;0.80;;
15929;SDS011;8064;51.142;4.780;2024-01-30T12:52:49;3.23;;;0.90;;
15929;SDS011;8064;51.142;4.780;2024-01-30T12:55:15;2.10;;;0.70;;
15929;SDS011;8064;51.142;4.780;2024-01-30T12:57:41;1.67;;;0.80;;
15929;SDS011;8064;51.142;4.780;2024-01-30T13:00:08;1.43;;;0.80;;
15929;SDS011;8064;51.142;4.780;2024-01-30T13:02:34;3.90;;;1.00;;
15929;SDS011;8064;51.142;4.780;2024-01-30T13:05:03;3.30;;;0.70;;
15929;SDS011;8064;51.142;4.780;2024-01-30T13:07:29;4.60;;;0.90;;
15929;SDS011;8064;51.142;4.780;2024-01-30T13:09:56;3.47;;;1.10;;
15929;SDS011;8064;51.142;4.780;2024-01-30T13:12:27;2.50;;;1.00;;
15929;SDS011;8064;51.142;4.780;2024-01-30T13:14:53;3.93;;;0.90;;
15929;SDS011;8064;51.142;4.780;2024-01-30T13:17:19;2.00;;;0.67;;
15929;SDS011;8064;51.142;4.780;2024-01-30T13:19:45;3.97;;;1.20;;
15929;SDS011;8064;51.142;4.780;2024-01-30T13:22:11;2.10;;;0.70;;
15929;SDS011;8064;51.142;4.780;2024-01-30T13:24:37;2.33;;;0.70;;
15929;SDS011;8064;51.142;4.780;2024-01-30T13:27:03;2.43;;;0.80;;
15929;SDS011;8064;51.142;4.780;2024-01-30T13:29:31;0.97;;;0.50;;
15929;SDS011;8064;51.142;4.780;2024-01-30T13:31:56;2.10;;;0.63;;
15929;SDS011;8064;51.142;4.780;2024-01-30T13:34:22;3.00;;;0.60;;
15929;SDS011;8064;51.142;4.780;2024-01-30T13:36:48;3.80;;;0.80;;
15929;SDS011;8064;51.142;4.780;2024-01-30T13:39:14;3.07;;;0.70;;
15929;SDS011;8064;51.142;4.780;2024-01-30T13:41:41;2.87;;;1.00;;
15929;SDS011;8064;51.142;4.780;2024-01-30T13:44:07;4.93;;;0.70;;
15929;SDS011;8064;51.142;4.780;2024-01-30T13:46:34;2.67;;;1.00;;
15929;SDS011;8064;51.142;4.780;2024-01-30T13:49:00;8.93;;;1.00;;
15929;SDS011;8064;51.142;4.780;2024-01-30T13:51:27;1.57;;;0.70;;
15929;SDS011;8064;51.142;4.780;2024-01-30T13:53:53;1.47;;;0.87;;
15929;SDS011;8064;51.142;4.780;2024-01-30T13:56:20;2.47;;;0.83;;
15929;SDS011;8064;51.142;4.780;2024-01-30T13:58:47;3.30;;;0.90;;
15929;SDS011;8064;51.142;4.780;2024-01-30T14:01:15;3.23;;;0.90;;
15929;SDS011;8064;51.142;4.780;2024-01-30T14:03:41;2.80;;;1.10;;
15929;SDS011;8064;51.142;4.780;2024-01-30T14:06:07;4.27;;;0.80;;
15929;SDS011;8064;51.142;4.780;2024-01-30T14:08:32;4.60;;;0.93;;
15929;SDS011;8064;51.142;4.780;2024-01-30T14:10:58;5.93;;;0.90;;
15929;SDS011;8064;51.142;4.780;2024-01-30T14:13:24;1.57;;;0.90;;
15929;SDS011;8064;51.142;4.780;2024-01-30T14:15:51;3.20;;;1.07;;
15929;SDS011;8064;51.142;4.780;2024-01-30T14:18:17;1.83;;;1.00;;
15929;SDS011;8064;51.142;4.780;2024-01-30T14:20:43;1.97;;;0.90;;
15929;SDS011;8064;51.142;4.780;2024-01-30T14:23:09;3.90;;;1.10;;
15929;SDS011;8064;51.142;4.780;2024-01-30T14:25:35;4.37;;;1.13;;
15929;SDS011;8064;51.142;4.780;2024-01-30T14:28:00;3.80;;;0.90;;
15929;SDS011;8064;51.142;4.780;2024-01-30T14:30:26;3.43;;;1.00;;
15929;SDS011;8064;51.142;4.780;2024-01-30T14:32:52;3.80;;;1.10;;
15929;SDS011;8064;51.142;4.780;2024-01-30T14:35:18;3.63;;;0.87;;
15929;SDS011;8064;51.142;4.780;2024-01-30T14:37:44;4.03;;;0.97;;
15929;SDS011;8064;51.142;4.780;2024-01-30T14:40:10;3.63;;;0.93;;
15929;SDS011;8064;51.142;4.780;2024-01-30T14:42:36;4.07;;;1.00;;
15929;SDS011;8064;51.142;4.780;2024-01-30T14:45:03;3.47;;;0.70;;
15929;SDS011;8064;51.142;4.780;2024-01-30T14:47:29;4.73;;;1.53;;
15929;SDS011;8064;51.142;4.780;2024-01-30T14:49:56;4.73;;;1.00;;
15929;SDS011;8064;51.142;4.780;2024-01-30T14:52:22;5.27;;;0.93;;
15929;SDS011;8064;51.142;4.780;2024-01-30T14:54:48;4.67;;;0.80;;
15929;SDS011;8064;51.142;4.780;2024-01-30T14:57:14;4.13;;;1.03;;